createdAt,value
2023-04-29T00:04:05.319Z,1.33
2023-04-29T00:09:08.646Z,1.40
2023-04-29T00:14:11.426Z,1.00
2023-04-29T00:19:14.202Z,0.90
2023-04-29T00:24:16.881Z,1.20
2023-04-29T00:29:19.884Z,0.90
2023-04-29T00:34:23.032Z,0.98
2023-04-29T00:39:26.090Z,0.88
2023-04-29T00:44:28.908Z,0.90
2023-04-29T00:49:31.995Z,0.90
2023-04-29T00:54:35.881Z,0.85
2023-04-29T00:59:39.247Z,0.70
2023-04-29T01:04:42.041Z,1.05
2023-04-29T01:09:59.391Z,1.02
2023-04-29T01:15:17.471Z,1.05
2023-04-29T01:20:21.694Z,0.80
2023-04-29T01:25:24.669Z,1.00
2023-04-29T01:30:40.718Z,0.90
2023-04-29T01:35:44.009Z,0.88
2023-04-29T01:40:50.481Z,0.85
2023-04-29T01:45:59.643Z,0.68
2023-04-29T01:51:03.135Z,1.10
2023-04-29T01:56:07.360Z,1.10
2023-04-29T02:01:25.119Z,1.15
2023-04-29T02:06:28.682Z,1.55
2023-04-29T02:11:35.778Z,2.20
2023-04-29T02:16:38.739Z,2.03
2023-04-29T02:21:43.465Z,0.83
2023-04-29T02:26:46.374Z,1.05
2023-04-29T02:31:49.214Z,1.00
2023-04-29T02:36:52.474Z,1.52
2023-04-29T02:47:00.295Z,0.80
2023-04-29T02:52:03.178Z,0.98
2023-04-29T02:57:06.263Z,1.05
2023-04-29T03:02:09.414Z,0.50
2023-04-29T03:07:12.760Z,0.80
2023-04-29T03:12:17.257Z,1.08
2023-04-29T03:17:22.169Z,0.80
2023-04-29T03:22:25.226Z,1.00
2023-04-29T03:27:28.720Z,0.98
2023-04-29T03:32:31.977Z,1.10
2023-04-29T03:37:36.005Z,1.40
2023-04-29T03:42:52.181Z,1.52
2023-04-29T03:47:56.550Z,1.10
2023-04-29T03:52:59.682Z,1.17
2023-04-29T03:58:03.038Z,1.30
2023-04-29T04:03:06.158Z,1.27
2023-04-29T04:08:11.697Z,0.93
2023-04-29T04:13:30.561Z,0.82
2023-04-29T04:18:33.975Z,0.70
2023-04-29T04:23:38.412Z,1.00
2023-04-29T04:28:41.807Z,0.93
2023-04-29T04:33:49.403Z,1.30
2023-04-29T04:38:52.727Z,0.70
2023-04-29T04:43:55.583Z,1.40
2023-04-29T04:49:31.703Z,1.60
2023-04-29T04:54:35.898Z,0.90
2023-04-29T04:59:54.018Z,1.30
2023-04-29T05:04:57.368Z,1.08
2023-04-29T05:10:08.937Z,1.50
2023-04-29T05:15:20.077Z,1.10
2023-04-29T05:20:26.650Z,1.23
2023-04-29T05:25:31.625Z,1.45
2023-04-29T05:30:35.294Z,1.50
2023-04-29T05:35:38.387Z,0.90
2023-04-29T05:40:41.568Z,0.70
2023-04-29T05:46:04.158Z,1.13
2023-04-29T05:51:07.197Z,0.60
2023-04-29T05:56:11.441Z,0.75
2023-04-29T06:01:15.634Z,1.00
2023-04-29T06:06:19.150Z,1.00
2023-04-29T06:11:57.316Z,1.00
2023-04-29T06:17:00.442Z,1.80
2023-04-29T06:22:04.320Z,1.00
2023-04-29T06:27:08.307Z,0.90
2023-04-29T06:32:11.436Z,1.35
2023-04-29T06:37:14.682Z,1.50
2023-04-29T06:42:35.556Z,2.47
2023-04-29T06:48:01.526Z,1.20
2023-04-29T06:53:24.901Z,1.60
2023-04-29T06:58:28.130Z,1.20
2023-04-29T07:03:31.833Z,1.30
2023-04-29T07:08:35.349Z,1.40
2023-04-29T07:13:38.678Z,1.38
2023-04-29T07:18:41.974Z,4.60
2023-04-29T07:23:45.393Z,1.33
2023-04-29T07:28:50.746Z,0.82
2023-04-29T07:33:54.217Z,1.48
2023-04-29T07:38:57.576Z,1.15
2023-04-29T07:44:00.970Z,1.27
2023-04-29T07:49:06.152Z,1.27
2023-04-29T07:54:09.489Z,1.13
2023-04-29T07:59:13.023Z,1.83
2023-04-29T08:04:16.536Z,1.23
2023-04-29T08:09:27.004Z,2.10
2023-04-29T08:14:30.528Z,1.30
2023-04-29T08:19:35.234Z,1.37
2023-04-29T08:24:38.702Z,1.67
2023-04-29T08:29:45.688Z,1.60
2023-04-29T08:34:49.223Z,1.50
2023-04-29T08:39:52.311Z,2.00
2023-04-29T08:44:55.411Z,1.50
2023-04-29T08:50:06.314Z,1.73
2023-04-29T08:55:09.815Z,3.28
2023-04-29T09:00:13.714Z,1.80
2023-04-29T09:05:17.141Z,1.52
2023-04-29T09:10:20.467Z,2.35
2023-04-29T09:15:23.588Z,1.75
2023-04-29T09:20:27.851Z,1.70
2023-04-29T09:25:31.751Z,1.50
2023-04-29T09:30:46.748Z,1.60
2023-04-29T09:35:49.652Z,2.13
2023-04-29T09:40:59.581Z,1.25
2023-04-29T09:46:04.455Z,2.80
2023-04-29T09:51:07.527Z,2.30
2023-04-29T09:56:10.515Z,1.70
2023-04-29T10:01:14.807Z,1.70
2023-04-29T10:06:18.505Z,1.85
2023-04-29T10:11:22.077Z,1.90
2023-04-29T10:16:33.375Z,1.50
2023-04-29T10:21:36.835Z,1.38
2023-04-29T10:26:40.064Z,1.33
2023-04-29T10:31:44.293Z,1.48
2023-04-29T10:36:47.867Z,1.50
2023-04-29T10:41:51.811Z,1.45
2023-04-29T10:47:21.660Z,1.48
2023-04-29T10:52:24.667Z,1.40
2023-04-29T10:57:27.595Z,1.63
2023-04-29T11:02:30.619Z,1.52
2023-04-29T11:07:33.676Z,1.60
2023-04-29T11:12:36.812Z,1.30
2023-04-29T11:17:39.915Z,1.20
2023-04-29T11:22:43.507Z,1.38
2023-04-29T11:27:48.897Z,1.75
2023-04-29T11:32:52.546Z,1.40
2023-04-29T11:37:55.726Z,0.98
2023-04-29T11:42:58.951Z,1.00
2023-04-29T11:48:02.572Z,0.98
2023-04-29T11:53:06.454Z,1.02
2023-04-29T11:58:09.322Z,0.88
2023-04-29T12:03:17.574Z,1.30
2023-04-29T12:08:25.121Z,1.52
2023-04-29T12:13:31.551Z,1.45
2023-04-29T12:18:35.213Z,1.70
2023-04-29T12:23:38.070Z,1.40
2023-04-29T12:28:43.681Z,1.80
2023-04-29T12:33:46.572Z,1.60
2023-04-29T12:38:50.110Z,1.25
2023-04-29T12:43:53.086Z,1.92
2023-04-29T12:48:56.011Z,1.67
2023-04-29T12:54:02.307Z,2.15
2023-04-29T12:59:12.642Z,0.95
2023-04-29T13:04:15.522Z,1.50
2023-04-29T13:09:19.143Z,1.10
2023-04-29T13:14:22.798Z,1.50
2023-04-29T13:19:41.162Z,1.65
2023-04-29T13:24:48.387Z,2.25
2023-04-29T13:29:51.629Z,2.70
2023-04-29T13:34:55.193Z,1.90
2023-04-29T13:39:58.239Z,1.60
2023-04-29T13:45:01.599Z,1.70
2023-04-29T14:00:47.151Z,2.30
2023-04-29T14:05:42.776Z,2.95
2023-04-29T14:10:45.954Z,3.20
2023-04-29T14:15:48.906Z,4.20
2023-04-29T14:20:52.044Z,5.75
2023-04-29T14:25:58.840Z,7.80
2023-04-29T14:31:09.625Z,6.65
2023-04-29T14:36:12.685Z,6.72
2023-04-29T14:41:15.649Z,8.88
2023-04-29T14:46:18.589Z,6.75
2023-04-29T14:51:21.689Z,8.50
2023-04-29T14:56:24.425Z,6.93
2023-04-29T15:01:29.848Z,7.05
2023-04-29T15:06:34.202Z,6.03
2023-04-29T15:11:37.200Z,5.32
2023-04-29T15:16:39.987Z,5.47
2023-04-29T15:21:42.981Z,3.10
2023-04-29T15:26:46.942Z,4.22
2023-04-29T15:31:49.863Z,4.85
2023-04-29T15:36:52.898Z,4.13
2023-04-29T15:41:55.918Z,3.10
2023-04-29T15:46:58.743Z,3.33
2023-04-29T15:52:01.816Z,4.28
2023-04-29T15:57:04.856Z,3.35
2023-04-29T16:02:12.070Z,3.15
2023-04-29T16:07:15.094Z,2.72
2023-04-29T16:12:17.936Z,2.42
2023-04-29T16:17:20.904Z,2.30
2023-04-29T16:22:23.712Z,2.88
2023-04-29T16:27:30.321Z,2.60
2023-04-29T16:32:33.569Z,2.40
2023-04-29T16:37:36.769Z,2.38
2023-04-29T16:42:39.533Z,2.75
2023-04-29T16:47:42.935Z,3.38
2023-04-29T16:52:45.826Z,6.25
2023-04-29T16:57:48.557Z,5.95
2023-04-29T17:02:51.667Z,7.40
2023-04-29T17:07:55.303Z,6.75
2023-04-29T17:12:58.166Z,6.63
2023-04-29T17:18:01.051Z,5.32
2023-04-29T17:23:04.018Z,3.95
2023-04-29T17:28:07.313Z,3.20
2023-04-29T17:33:10.207Z,3.03
2023-04-29T17:38:13.099Z,2.03
2023-04-29T17:43:15.875Z,1.90
2023-04-29T17:48:19.754Z,2.15
2023-04-29T17:53:22.609Z,2.30
2023-04-29T17:58:25.459Z,2.42
2023-04-29T18:03:30.615Z,2.40
2023-04-29T18:13:36.437Z,15.55
2023-04-29T18:18:39.328Z,2.88
2023-04-29T18:23:42.245Z,3.50
2023-04-29T18:28:46.661Z,3.42
2023-04-29T18:33:49.387Z,3.30
2023-04-29T18:38:52.514Z,3.72
2023-04-29T18:43:55.317Z,3.67
2023-04-29T18:48:58.100Z,6.50
2023-04-29T18:54:00.945Z,3.67
2023-04-29T18:59:04.342Z,5.82
2023-04-29T19:04:09.898Z,3.45
2023-04-29T19:09:13.912Z,3.25
2023-04-29T19:14:16.824Z,4.03
2023-04-29T19:19:19.623Z,2.70
2023-04-29T19:24:22.386Z,2.33
2023-04-29T19:29:25.153Z,2.45
2023-04-29T19:34:28.023Z,2.20
2023-04-29T19:39:31.102Z,1.90
2023-04-29T19:44:33.924Z,2.15
2023-04-29T19:49:37.642Z,2.50
2023-04-29T19:54:41.255Z,2.10
2023-04-29T19:59:44.071Z,2.30
2023-04-29T20:04:46.861Z,2.58
2023-04-29T20:09:50.051Z,2.67
2023-04-29T20:14:52.899Z,2.15
2023-04-29T20:19:55.984Z,2.47
2023-04-29T20:24:58.910Z,2.55
2023-04-29T20:30:01.983Z,2.50
2023-04-29T20:35:06.800Z,2.65
2023-04-29T20:40:10.297Z,2.83
2023-04-29T20:45:13.569Z,2.45
2023-04-29T20:50:16.522Z,2.55
2023-04-29T20:55:19.343Z,2.00
2023-04-29T21:00:23.436Z,2.40
2023-04-29T21:05:26.562Z,2.30
2023-04-29T21:10:29.352Z,1.77
2023-04-29T21:15:32.186Z,2.50
2023-04-29T21:20:36.302Z,2.58
2023-04-29T21:25:39.063Z,2.30
2023-04-29T21:30:41.918Z,2.72
2023-04-29T21:35:48.997Z,2.55
2023-04-29T21:40:53.881Z,2.58
2023-04-29T21:45:56.662Z,2.70
2023-04-29T21:51:00.353Z,3.40
2023-04-29T21:56:03.073Z,2.55
2023-04-29T22:01:25.899Z,3.10
2023-04-29T22:06:28.893Z,2.80
2023-04-29T22:11:31.904Z,2.50
2023-04-29T22:16:36.250Z,2.38
2023-04-29T22:21:41.122Z,2.08
2023-04-29T22:31:46.559Z,2.55
2023-04-29T22:36:49.357Z,2.33
2023-04-29T22:41:52.203Z,1.75
2023-04-29T22:46:55.203Z,1.95
2023-04-29T22:51:58.101Z,2.53
2023-04-29T22:57:00.842Z,2.80
2023-04-29T23:02:03.799Z,2.60
2023-04-29T23:07:06.852Z,2.97
2023-04-29T23:12:09.550Z,3.33
2023-04-29T23:17:12.796Z,2.60
2023-04-29T23:22:17.339Z,4.00
2023-04-29T23:27:20.139Z,3.05
2023-04-29T23:32:24.713Z,2.95
2023-04-29T23:37:27.629Z,4.38
2023-04-29T23:42:30.873Z,6.15
2023-04-29T23:47:33.736Z,5.57
2023-04-29T23:52:36.552Z,4.88
2023-04-29T23:57:39.307Z,3.40
